createdAt,value
2023-04-22T00:01:36.260Z,9.77
2023-04-22T00:04:21.469Z,8.63
2023-04-22T00:07:05.546Z,7.83
2023-04-22T00:09:49.482Z,9.50
2023-04-22T00:12:35.458Z,12.70
2023-04-22T00:15:21.694Z,11.03
2023-04-22T00:18:07.352Z,13.40
2023-04-22T00:20:51.371Z,11.57
2023-04-22T00:23:35.596Z,13.93
2023-04-22T00:26:19.783Z,14.57
2023-04-22T00:29:05.747Z,16.13
2023-04-22T00:31:49.838Z,9.67
2023-04-22T00:34:33.864Z,16.33
2023-04-22T00:37:18.020Z,12.43
2023-04-22T00:40:02.782Z,9.43
2023-04-22T00:42:50.646Z,14.93
2023-04-22T00:45:38.335Z,10.90
2023-04-22T00:48:22.537Z,10.50
2023-04-22T00:51:07.094Z,12.40
2023-04-22T00:53:51.214Z,12.60
2023-04-22T00:56:37.724Z,15.40
2023-04-22T00:59:22.724Z,13.67
2023-04-22T01:02:08.495Z,10.33
2023-04-22T01:04:54.632Z,14.27
2023-04-22T01:07:39.013Z,13.90
2023-04-22T01:10:22.992Z,13.37
2023-04-22T01:13:08.882Z,13.73
2023-04-22T01:15:54.931Z,13.47
2023-04-22T01:18:40.422Z,13.27
2023-04-22T01:21:25.166Z,10.90
2023-04-22T01:24:10.727Z,11.20
2023-04-22T01:26:55.786Z,12.40
2023-04-22T01:29:40.239Z,10.60
2023-04-22T01:32:24.485Z,11.70
2023-04-22T01:35:09.800Z,11.43
2023-04-22T01:37:53.977Z,7.00
2023-04-22T01:40:40.177Z,13.27
2023-04-22T01:43:24.592Z,8.77
2023-04-22T01:46:09.774Z,9.60
2023-04-22T01:48:53.947Z,19.47
2023-04-22T01:51:39.794Z,6.87
2023-04-22T01:54:23.822Z,7.73
2023-04-22T01:57:11.716Z,8.97
2023-04-22T01:59:56.137Z,11.77
2023-04-22T02:02:40.080Z,11.43
2023-04-22T02:05:24.431Z,15.53
2023-04-22T02:08:08.686Z,11.83
2023-04-22T02:10:53.238Z,10.00
2023-04-22T02:13:42.703Z,7.57
2023-04-22T02:16:26.964Z,11.23
2023-04-22T02:19:11.680Z,9.63
2023-04-22T02:21:55.835Z,14.30
2023-04-22T02:24:39.879Z,8.30
2023-04-22T02:27:24.021Z,6.77
2023-04-22T02:30:11.263Z,13.57
2023-04-22T02:32:56.219Z,7.93
2023-04-22T02:35:40.451Z,10.93
2023-04-22T02:38:24.215Z,11.83
2023-04-22T02:41:08.056Z,12.90
2023-04-22T02:43:54.065Z,10.10
2023-04-22T02:46:39.647Z,9.27
2023-04-22T02:49:23.772Z,14.83
2023-04-22T02:52:07.936Z,12.07
2023-04-22T02:54:52.419Z,11.17
2023-04-22T02:57:36.249Z,12.67
2023-04-22T03:00:22.255Z,10.47
2023-04-22T03:03:07.815Z,8.43
2023-04-22T03:05:52.211Z,14.30
2023-04-22T03:08:35.988Z,7.80
2023-04-22T03:11:19.996Z,9.20
2023-04-22T03:14:05.059Z,9.30
2023-04-22T03:16:49.026Z,10.27
2023-04-22T03:19:34.350Z,9.63
2023-04-22T03:22:18.696Z,11.90
2023-04-22T03:25:03.072Z,10.63
2023-04-22T03:27:49.432Z,13.27
2023-04-22T03:30:33.285Z,10.53
2023-04-22T03:33:17.649Z,14.00
2023-04-22T03:36:12.658Z,8.03
2023-04-22T03:38:57.096Z,13.10
2023-04-22T03:41:43.193Z,9.23
2023-04-22T03:44:27.430Z,5.63
2023-04-22T03:47:12.376Z,6.97
2023-04-22T03:50:02.966Z,8.27
2023-04-22T03:52:51.797Z,11.57
2023-04-22T03:55:38.320Z,9.57
2023-04-22T03:58:22.745Z,11.33
2023-04-22T04:01:08.233Z,8.17
2023-04-22T04:03:53.723Z,10.63
2023-04-22T04:06:39.930Z,19.53
2023-04-22T04:09:25.249Z,15.90
2023-04-22T04:12:09.768Z,20.13
2023-04-22T04:14:59.596Z,18.37
2023-04-22T04:17:44.771Z,19.60
2023-04-22T04:20:29.912Z,17.50
2023-04-22T04:23:13.936Z,16.77
2023-04-22T04:26:03.016Z,21.67
2023-04-22T04:28:49.304Z,17.77
2023-04-22T04:31:35.700Z,21.77
2023-04-22T04:34:20.621Z,17.43
2023-04-22T04:37:05.001Z,20.53
2023-04-22T04:39:59.938Z,19.30
2023-04-22T04:42:55.786Z,19.50
2023-04-22T04:45:48.725Z,20.30
2023-04-22T04:48:36.970Z,21.70
2023-04-22T04:51:25.421Z,17.87
2023-04-22T04:54:14.162Z,20.37
2023-04-22T04:56:59.005Z,16.23
2023-04-22T04:59:44.616Z,22.63
2023-04-22T05:02:29.258Z,24.43
2023-04-22T05:05:14.243Z,25.50
2023-04-22T05:08:00.801Z,17.47
2023-04-22T05:10:45.510Z,24.53
2023-04-22T05:13:30.236Z,19.97
2023-04-22T05:16:16.034Z,14.33
2023-04-22T05:18:59.984Z,11.67
2023-04-22T05:21:44.239Z,8.60
2023-04-22T05:24:28.453Z,14.50
2023-04-22T05:27:16.775Z,7.73
2023-04-22T05:30:01.124Z,9.33
2023-04-22T05:32:51.619Z,13.47
2023-04-22T05:35:35.760Z,12.93
2023-04-22T05:38:20.898Z,7.60
2023-04-22T05:41:05.510Z,10.23
2023-04-22T05:43:49.657Z,6.63
2023-04-22T05:46:36.706Z,11.80
2023-04-22T05:49:24.199Z,11.03
2023-04-22T05:52:26.675Z,8.87
2023-04-22T05:55:19.607Z,5.33
2023-04-22T05:58:04.692Z,8.77
2023-04-22T06:01:02.865Z,10.87
2023-04-22T06:04:06.863Z,8.03
2023-04-22T06:06:54.114Z,7.27
2023-04-22T06:09:38.853Z,5.87
2023-04-22T06:12:25.078Z,6.63
2023-04-22T06:15:11.754Z,9.23
2023-04-22T06:17:56.340Z,13.00
2023-04-22T06:20:40.642Z,8.70
2023-04-22T06:23:26.202Z,6.90
2023-04-22T06:26:10.562Z,7.13
2023-04-22T06:28:54.974Z,9.70
2023-04-22T06:31:39.022Z,7.70
2023-04-22T06:34:23.783Z,7.97
2023-04-22T06:37:09.217Z,8.40
2023-04-22T06:39:55.041Z,5.03
2023-04-22T06:43:04.979Z,8.40
2023-04-22T06:46:18.064Z,7.97
2023-04-22T06:49:22.175Z,8.20
2023-04-22T06:52:12.358Z,5.77
2023-04-22T06:54:57.720Z,6.37
2023-04-22T06:57:41.654Z,7.90
2023-04-22T07:00:26.126Z,8.40
2023-04-22T07:03:10.099Z,7.27
2023-04-22T07:05:54.309Z,7.83
2023-04-22T07:08:38.543Z,5.87
2023-04-22T07:11:23.943Z,8.70
2023-04-22T07:14:26.879Z,6.97
2023-04-22T07:17:10.925Z,6.70
2023-04-22T07:19:54.804Z,5.27
2023-04-22T07:22:38.702Z,3.77
2023-04-22T07:25:23.696Z,6.93
2023-04-22T07:28:09.121Z,6.57
2023-04-22T07:30:53.151Z,4.87
2023-04-22T07:33:37.203Z,4.60
2023-04-22T07:36:21.038Z,7.87
2023-04-22T07:39:05.143Z,5.77
2023-04-22T07:41:49.170Z,4.60
2023-04-22T07:44:34.448Z,8.27
2023-04-22T07:47:18.605Z,8.43
2023-04-22T07:50:02.475Z,9.13
2023-04-22T07:52:48.514Z,11.30
2023-04-22T07:55:33.342Z,5.20
2023-04-22T07:58:17.236Z,7.33
2023-04-22T08:01:02.510Z,6.63
2023-04-22T08:03:46.496Z,9.17
2023-04-22T08:06:30.995Z,9.47
2023-04-22T08:09:14.782Z,6.27
2023-04-22T08:11:58.746Z,7.83
2023-04-22T08:14:42.536Z,8.20
2023-04-22T08:17:28.274Z,7.40
2023-04-22T08:20:12.513Z,9.95
2023-04-22T08:23:00.302Z,10.80
2023-04-22T08:25:44.243Z,6.53
2023-04-22T08:28:28.254Z,6.85
2023-04-22T08:31:12.981Z,4.03
2023-04-22T08:33:58.382Z,6.53
2023-04-22T08:36:42.278Z,9.93
2023-04-22T08:39:26.208Z,8.68
2023-04-22T08:42:10.591Z,8.77
2023-04-22T08:44:55.061Z,5.93
2023-04-22T08:47:39.585Z,6.90
2023-04-22T08:50:25.457Z,7.90
2023-04-22T08:53:09.439Z,4.97
2023-04-22T08:55:55.704Z,7.27
2023-04-22T08:58:40.927Z,5.05
2023-04-22T09:01:26.739Z,6.13
2023-04-22T09:04:12.337Z,4.47
2023-04-22T09:06:58.397Z,5.82
2023-04-22T09:09:44.952Z,5.75
2023-04-22T09:12:29.172Z,8.05
2023-04-22T09:15:14.066Z,4.45
2023-04-22T09:17:58.701Z,5.03
2023-04-22T09:20:43.861Z,3.83
2023-04-22T09:23:29.298Z,7.38
2023-04-22T09:26:13.625Z,2.58
2023-04-22T09:29:00.838Z,5.45
2023-04-22T09:31:49.750Z,3.88
2023-04-22T09:34:34.458Z,10.20
2023-04-22T09:37:21.455Z,4.20
2023-04-22T09:40:08.872Z,7.35
2023-04-22T09:42:54.794Z,4.97
2023-04-22T09:45:41.599Z,4.82
2023-04-22T09:48:25.657Z,4.65
2023-04-22T09:51:17.122Z,5.68
2023-04-22T09:54:04.380Z,7.18
2023-04-22T09:56:51.112Z,4.97
2023-04-22T09:59:35.327Z,5.10
2023-04-22T10:02:19.490Z,5.95
2023-04-22T10:05:03.555Z,5.07
2023-04-22T10:07:47.963Z,9.43
2023-04-22T10:10:32.013Z,4.13
2023-04-22T10:13:17.303Z,4.30
2023-04-22T10:16:02.421Z,4.13
2023-04-22T10:18:47.052Z,5.78
2023-04-22T10:21:33.526Z,6.63
2023-04-22T10:24:19.130Z,3.75
2023-04-22T10:27:06.751Z,4.72
2023-04-22T10:29:52.400Z,2.78
2023-04-22T10:32:36.404Z,9.50
2023-04-22T10:35:29.248Z,9.98
2023-04-22T10:38:13.063Z,6.75
2023-04-22T10:41:01.362Z,6.60
2023-04-22T10:43:46.972Z,5.80
2023-04-22T10:47:03.218Z,9.60
2023-04-22T10:49:47.124Z,5.55
2023-04-22T10:52:31.240Z,6.00
2023-04-22T10:55:15.172Z,6.25
2023-04-22T10:58:00.898Z,6.05
2023-04-22T11:00:53.295Z,6.07
2023-04-22T11:03:39.681Z,2.50
2023-04-22T11:06:27.278Z,6.72
2023-04-22T11:09:13.728Z,7.35
2023-04-22T11:12:38.531Z,5.95
2023-04-22T11:15:23.449Z,4.68
2023-04-22T11:18:19.833Z,5.95
2023-04-22T11:21:08.863Z,5.65
2023-04-22T11:23:53.926Z,6.25
2023-04-22T11:26:40.676Z,4.75
2023-04-22T11:29:25.273Z,4.72
2023-04-22T11:32:12.346Z,13.57
2023-04-22T11:34:56.895Z,7.35
2023-04-22T11:37:46.709Z,4.95
2023-04-22T11:40:33.769Z,7.65
2023-04-22T11:43:19.826Z,4.72
2023-04-22T11:46:05.220Z,8.38
2023-04-22T11:48:49.316Z,4.80
2023-04-22T11:51:33.297Z,3.63
2023-04-22T11:54:18.926Z,7.43
2023-04-22T11:57:04.910Z,9.20
2023-04-22T11:59:59.721Z,7.03
2023-04-22T12:02:45.452Z,6.35
2023-04-22T12:05:43.535Z,3.60
2023-04-22T12:08:34.140Z,6.47
2023-04-22T12:11:19.528Z,5.28
2023-04-22T12:14:07.315Z,6.43
2023-04-22T12:16:52.076Z,4.18
2023-04-22T12:19:36.021Z,8.73
2023-04-22T12:22:26.410Z,9.70
2023-04-22T12:25:11.119Z,4.22
2023-04-22T12:27:56.331Z,3.58
2023-04-22T12:30:40.201Z,10.02
2023-04-22T12:33:24.302Z,9.00
2023-04-22T12:36:08.872Z,7.93
2023-04-22T12:38:52.777Z,5.47
2023-04-22T12:41:36.625Z,6.30
2023-04-22T12:44:24.504Z,5.68
2023-04-22T12:47:09.996Z,3.17
2023-04-22T12:49:54.124Z,2.22
2023-04-22T12:52:38.144Z,4.63
2023-04-22T12:55:22.340Z,4.50
2023-04-22T12:58:06.171Z,3.13
2023-04-22T13:00:51.509Z,3.70
2023-04-22T13:03:35.831Z,5.00
2023-04-22T13:06:19.803Z,4.68
2023-04-22T13:09:03.622Z,5.78
2023-04-22T13:11:49.337Z,2.75
2023-04-22T13:14:33.282Z,2.70
2023-04-22T13:17:18.656Z,5.22
2023-04-22T13:20:04.042Z,3.17
2023-04-22T13:22:48.462Z,5.30
2023-04-22T13:25:32.535Z,1.88
2023-04-22T13:28:16.822Z,2.75
2023-04-22T13:31:01.358Z,4.35
2023-04-22T13:33:47.420Z,1.67
2023-04-22T13:36:31.990Z,1.52
2023-04-22T13:39:16.023Z,3.47
2023-04-22T13:42:00.281Z,3.25
2023-04-22T13:44:44.189Z,1.45
2023-04-22T13:47:28.233Z,4.72
2023-04-22T13:50:13.605Z,3.47
2023-04-22T13:52:57.545Z,8.27
2023-04-22T13:55:43.422Z,2.83
2023-04-22T13:58:27.552Z,3.75
2023-04-22T14:01:11.633Z,3.70
2023-04-22T14:03:56.614Z,3.33
2023-04-22T14:06:42.256Z,6.00
2023-04-22T14:09:26.665Z,2.80
2023-04-22T14:12:12.496Z,4.00
2023-04-22T14:14:56.611Z,3.20
2023-04-22T14:17:41.239Z,4.38
2023-04-22T14:20:26.277Z,3.22
2023-04-22T14:23:11.647Z,3.35
2023-04-22T14:25:56.508Z,3.05
2023-04-22T14:28:41.710Z,3.60
2023-04-22T14:31:26.038Z,6.88
2023-04-22T14:34:09.986Z,4.75
2023-04-22T14:36:53.833Z,5.43
2023-04-22T14:39:39.322Z,4.20
2023-04-22T14:42:23.216Z,7.93
2023-04-22T14:45:08.190Z,4.43
2023-04-22T14:47:52.284Z,4.25
2023-04-22T14:50:36.317Z,6.72
2023-04-22T14:53:20.192Z,7.30
2023-04-22T14:56:05.551Z,5.57
2023-04-22T14:58:49.438Z,6.03
2023-04-22T15:01:34.018Z,7.22
2023-04-22T15:04:19.730Z,6.72
2023-04-22T15:07:05.598Z,9.77
2023-04-22T15:09:50.931Z,7.85
2023-04-22T15:12:36.194Z,5.68
2023-04-22T15:15:20.305Z,12.32
2023-04-22T15:18:05.518Z,10.70
2023-04-22T15:20:49.366Z,12.00
2023-04-22T15:23:33.160Z,13.60
2023-04-22T15:26:17.108Z,8.10
2023-04-22T15:29:03.089Z,6.32
2023-04-22T15:31:47.352Z,7.78
2023-04-22T15:34:31.209Z,12.13
2023-04-22T15:37:16.323Z,13.38
2023-04-22T15:40:00.488Z,14.80
2023-04-22T15:42:44.445Z,19.95
2023-04-22T15:45:29.733Z,18.65
2023-04-22T15:48:13.609Z,16.25
2023-04-22T15:50:57.555Z,16.02
2023-04-22T15:53:41.483Z,13.00
2023-04-22T15:56:26.165Z,13.57
2023-04-22T15:59:10.156Z,17.52
2023-04-22T16:01:55.620Z,17.15
2023-04-22T16:04:39.697Z,14.18
2023-04-22T16:07:23.597Z,12.43
2023-04-22T16:10:09.122Z,9.65
2023-04-22T16:12:53.202Z,8.18
2023-04-22T16:15:37.286Z,20.98
2023-04-22T16:18:22.579Z,9.98
2023-04-22T16:21:07.811Z,11.75
2023-04-22T16:23:51.594Z,12.18
2023-04-22T16:26:35.706Z,12.25
2023-04-22T16:29:19.564Z,11.52
2023-04-22T16:32:03.710Z,12.30
2023-04-22T16:34:49.301Z,10.60
2023-04-22T16:37:34.078Z,9.87
2023-04-22T16:40:17.933Z,9.38
2023-04-22T16:43:05.393Z,13.05
2023-04-22T16:45:49.762Z,18.88
2023-04-22T16:48:33.908Z,13.90
2023-04-22T16:51:19.144Z,12.73
2023-04-22T16:54:03.022Z,10.23
2023-04-22T16:56:46.826Z,9.83
2023-04-22T16:59:30.675Z,11.00
2023-04-22T17:02:14.700Z,10.00
2023-04-22T17:04:58.646Z,9.37
2023-04-22T17:07:43.880Z,9.47
2023-04-22T17:10:27.805Z,9.73
2023-04-22T17:13:11.925Z,9.93
2023-04-22T17:15:55.811Z,12.23
2023-04-22T17:18:39.805Z,13.83
2023-04-22T17:21:23.770Z,9.87
2023-04-22T17:24:09.151Z,8.70
2023-04-22T17:26:53.043Z,9.70
2023-04-22T17:29:37.114Z,7.40
2023-04-22T17:32:20.976Z,9.67
2023-04-22T17:35:05.142Z,8.73
2023-04-22T17:37:48.971Z,13.73
2023-04-22T17:40:34.179Z,13.57
2023-04-22T17:43:18.161Z,10.80
2023-04-22T17:46:01.932Z,9.43
2023-04-22T17:48:46.883Z,10.03
2023-04-22T17:51:31.546Z,9.17
2023-04-22T17:54:15.566Z,15.67
2023-04-22T17:57:01.160Z,15.90
2023-04-22T17:59:45.155Z,12.20
2023-04-22T18:02:29.230Z,14.30
2023-04-22T18:05:13.401Z,10.90
2023-04-22T18:08:00.902Z,12.03
2023-04-22T18:10:45.065Z,14.03
2023-04-22T18:13:30.634Z,12.10
2023-04-22T18:16:14.853Z,16.57
2023-04-22T18:18:59.902Z,16.17
2023-04-22T18:21:56.666Z,19.90
2023-04-22T18:24:44.068Z,25.03
2023-04-22T18:27:28.129Z,22.20
2023-04-22T18:30:14.026Z,22.23
2023-04-22T18:32:58.520Z,11.07
2023-04-22T18:35:42.730Z,22.77
2023-04-22T18:38:27.292Z,25.53
2023-04-22T18:41:13.638Z,18.40
2023-04-22T18:43:57.862Z,18.63
2023-04-22T18:46:43.244Z,20.20
2023-04-22T18:49:27.209Z,15.07
2023-04-22T18:52:11.268Z,14.93
2023-04-22T18:54:55.318Z,17.00
2023-04-22T18:57:39.350Z,9.37
2023-04-22T19:00:23.846Z,7.27
2023-04-22T19:03:09.725Z,10.57
2023-04-22T19:05:53.904Z,11.80
2023-04-22T19:08:38.014Z,15.83
2023-04-22T19:11:22.017Z,14.73
2023-04-22T19:14:06.017Z,10.93
2023-04-22T19:16:50.083Z,10.13
2023-04-22T19:19:35.829Z,10.73
2023-04-22T19:22:20.080Z,11.07
2023-04-22T19:25:06.233Z,11.07
2023-04-22T19:27:50.095Z,12.87
2023-04-22T19:30:34.183Z,22.90
2023-04-22T19:33:18.208Z,8.97
2023-04-22T19:36:03.815Z,11.33
2023-04-22T19:38:47.894Z,13.07
2023-04-22T19:41:33.558Z,13.10
2023-04-22T19:44:17.671Z,9.37
2023-04-22T19:47:02.092Z,15.33
2023-04-22T19:49:46.624Z,11.00
2023-04-22T19:52:34.389Z,13.47
2023-04-22T19:55:18.921Z,10.73
2023-04-22T19:58:03.952Z,13.03
2023-04-22T20:00:49.551Z,12.77
2023-04-22T20:03:34.356Z,12.80
2023-04-22T20:06:19.454Z,14.07
2023-04-22T20:09:06.597Z,16.80
2023-04-22T20:11:51.412Z,17.27
2023-04-22T20:14:36.281Z,18.83
2023-04-22T20:17:20.954Z,12.63
2023-04-22T20:20:08.374Z,17.23
2023-04-22T20:22:55.105Z,9.13
2023-04-22T20:25:44.287Z,13.23
2023-04-22T20:28:43.665Z,15.97
2023-04-22T20:31:27.835Z,14.53
2023-04-22T20:34:11.921Z,14.00
2023-04-22T20:36:56.078Z,13.90
2023-04-22T20:39:41.243Z,15.20
2023-04-22T20:42:26.480Z,17.20
2023-04-22T20:45:15.119Z,7.90
2023-04-22T20:47:59.182Z,16.43
2023-04-22T20:50:44.011Z,13.00
2023-04-22T20:53:28.396Z,13.10
2023-04-22T20:56:12.263Z,10.57
2023-04-22T20:58:57.449Z,12.13
2023-04-22T21:01:41.545Z,12.83
2023-04-22T21:04:26.299Z,12.07
2023-04-22T21:07:14.271Z,14.87
2023-04-22T21:09:58.702Z,13.70
2023-04-22T21:12:43.318Z,13.77
2023-04-22T21:15:29.580Z,26.83
2023-04-22T21:18:15.027Z,22.30
2023-04-22T21:20:59.906Z,18.33
2023-04-22T21:23:44.283Z,14.47
2023-04-22T21:26:29.177Z,14.23
2023-04-22T21:29:13.486Z,16.33
2023-04-22T21:32:08.732Z,15.63
2023-04-22T21:34:53.790Z,22.90
2023-04-22T21:37:37.737Z,20.07
2023-04-22T21:40:21.801Z,18.53
2023-04-22T21:43:06.184Z,12.43
2023-04-22T21:45:50.053Z,9.33
2023-04-22T21:48:35.155Z,12.17
2023-04-22T21:51:19.050Z,13.33
2023-04-22T21:54:03.347Z,13.97
2023-04-22T21:56:47.281Z,10.80
2023-04-22T21:59:31.579Z,13.13
2023-04-22T22:02:15.472Z,9.70
2023-04-22T22:05:01.005Z,13.17
2023-04-22T22:07:45.498Z,10.97
2023-04-22T22:10:29.297Z,12.83
2023-04-22T22:13:13.238Z,14.37
2023-04-22T22:15:57.620Z,10.63
2023-04-22T22:18:41.992Z,12.37
2023-04-22T22:21:27.152Z,10.00
2023-04-22T22:24:11.009Z,13.73
2023-04-22T22:26:54.876Z,16.57
2023-04-22T22:29:40.945Z,13.50
2023-04-22T22:32:24.931Z,13.83
2023-04-22T22:35:09.383Z,20.43
2023-04-22T22:37:54.669Z,17.43
2023-04-22T22:40:38.353Z,18.50
2023-04-22T22:43:22.250Z,11.27
2023-04-22T22:46:06.140Z,13.97
2023-04-22T22:48:50.339Z,13.97
2023-04-22T22:51:34.586Z,10.63
2023-04-22T22:54:19.773Z,9.47
2023-04-22T22:57:05.509Z,10.13
2023-04-22T22:59:49.868Z,15.43
2023-04-22T23:02:34.068Z,14.80
2023-04-22T23:05:18.450Z,11.63
2023-04-22T23:08:02.251Z,11.40
2023-04-22T23:10:47.462Z,9.77
2023-04-22T23:13:31.295Z,13.00
2023-04-22T23:16:16.455Z,14.37
2023-04-22T23:19:01.375Z,12.73
2023-04-22T23:21:46.115Z,16.07
2023-04-22T23:24:30.620Z,12.33
2023-04-22T23:27:17.520Z,22.27
2023-04-22T23:30:02.199Z,15.60
2023-04-22T23:32:49.948Z,14.33
2023-04-22T23:35:35.013Z,13.03
2023-04-22T23:38:19.592Z,10.80
2023-04-22T23:41:03.668Z,10.33
2023-04-22T23:43:48.860Z,8.67
2023-04-22T23:46:32.740Z,11.67
2023-04-22T23:49:16.634Z,11.40
2023-04-22T23:52:00.891Z,11.07
2023-04-22T23:54:46.060Z,14.87
2023-04-22T23:57:30.502Z,11.17
